sensor_id;sensor_type;location;lat;lon;timestamp;pressure;altitude;pressure_sealevel;temperature;humidity
56006;BME280;41888;44.696;10.522;2023-04-24T00:01:22;99588.00;;;16.36;85.59
56006;BME280;41888;44.696;10.522;2023-04-24T00:03:48;99579.84;;;16.05;88.76
56006;BME280;41888;44.696;10.522;2023-04-24T00:06:14;99585.09;;;15.85;89.51
56006;BME280;41888;44.696;10.522;2023-04-24T00:08:42;99590.97;;;15.82;92.15
56006;BME280;41888;44.696;10.522;2023-04-24T00:11:09;99588.38;;;15.97;97.33
56006;BME280;41888;44.696;10.522;2023-04-24T00:13:35;99588.91;;;15.94;97.56
56006;BME280;41888;44.696;10.522;2023-04-24T00:16:01;99588.75;;;15.69;98.43
56006;BME280;41888;44.696;10.522;2023-04-24T00:18:28;99588.41;;;15.60;100.00
56006;BME280;41888;44.696;10.522;2023-04-24T00:20:54;99589.75;;;15.58;100.00
56006;BME280;41888;44.696;10.522;2023-04-24T00:23:20;99582.13;;;15.50;100.00
56006;BME280;41888;44.696;10.522;2023-04-24T00:25:46;99585.09;;;15.48;100.00
56006;BME280;41888;44.696;10.522;2023-04-24T00:28:12;99584.25;;;15.43;100.00
56006;BME280;41888;44.696;10.522;2023-04-24T00:30:38;99589.00;;;15.36;100.00
56006;BME280;41888;44.696;10.522;2023-04-24T00:33:05;99593.47;;;15.25;100.00
56006;BME280;41888;44.696;10.522;2023-04-24T00:35:31;99603.63;;;15.23;100.00
56006;BME280;41888;44.696;10.522;2023-04-24T00:37:58;99602.13;;;15.32;100.00
56006;BME280;41888;44.696;10.522;2023-04-24T00:40:24;99608.56;;;15.36;100.00
56006;BME280;41888;44.696;10.522;2023-04-24T00:42:50;99608.63;;;15.41;100.00
56006;BME280;41888;44.696;10.522;2023-04-24T00:45:16;99606.50;;;15.43;100.00
56006;BME280;41888;44.696;10.522;2023-04-24T00:47:43;99609.69;;;15.40;100.00
56006;BME280;41888;44.696;10.522;2023-04-24T00:50:09;99610.69;;;15.34;100.00
56006;BME280;41888;44.696;10.522;2023-04-24T00:52:37;99625.06;;;15.23;100.00
56006;BME280;41888;44.696;10.522;2023-04-24T00:55:03;99617.59;;;15.25;100.00
56006;BME280;41888;44.696;10.522;2023-04-24T00:57:30;99616.56;;;14.99;100.00
56006;BME280;41888;44.696;10.522;2023-04-24T00:59:56;99601.53;;;14.71;100.00
56006;BME280;41888;44.696;10.522;2023-04-24T01:02:23;99589.78;;;14.51;100.00
56006;BME280;41888;44.696;10.522;2023-04-24T01:04:51;99595.56;;;14.21;100.00
56006;BME280;41888;44.696;10.522;2023-04-24T01:07:21;99599.19;;;13.93;100.00
56006;BME280;41888;44.696;10.522;2023-04-24T01:09:48;99591.41;;;13.91;100.00
56006;BME280;41888;44.696;10.522;2023-04-24T01:12:17;99587.31;;;13.84;100.00
56006;BME280;41888;44.696;10.522;2023-04-24T01:14:43;99578.78;;;13.87;100.00
56006;BME280;41888;44.696;10.522;2023-04-24T01:17:09;99576.50;;;13.57;100.00
56006;BME280;41888;44.696;10.522;2023-04-24T01:19:37;99582.00;;;13.50;100.00
56006;BME280;41888;44.696;10.522;2023-04-24T01:22:08;99570.84;;;13.37;100.00
56006;BME280;41888;44.696;10.522;2023-04-24T01:24:34;99562.81;;;13.20;100.00
56006;BME280;41888;44.696;10.522;2023-04-24T01:27:01;99569.94;;;13.15;100.00
56006;BME280;41888;44.696;10.522;2023-04-24T01:29:27;99566.81;;;13.06;100.00
56006;BME280;41888;44.696;10.522;2023-04-24T01:31:54;99555.81;;;13.02;100.00
56006;BME280;41888;44.696;10.522;2023-04-24T01:34:21;99551.81;;;13.17;100.00
56006;BME280;41888;44.696;10.522;2023-04-24T01:36:48;99559.91;;;13.22;100.00
56006;BME280;41888;44.696;10.522;2023-04-24T01:39:14;99556.44;;;13.21;100.00
56006;BME280;41888;44.696;10.522;2023-04-24T01:41:42;99554.75;;;13.32;100.00
56006;BME280;41888;44.696;10.522;2023-04-24T01:44:08;99560.31;;;13.47;100.00
56006;BME280;41888;44.696;10.522;2023-04-24T01:46:35;99565.72;;;13.69;100.00
56006;BME280;41888;44.696;10.522;2023-04-24T01:49:02;99579.69;;;13.76;100.00
56006;BME280;41888;44.696;10.522;2023-04-24T01:51:28;99574.56;;;13.91;100.00
56006;BME280;41888;44.696;10.522;2023-04-24T01:53:54;99572.47;;;13.76;100.00
56006;BME280;41888;44.696;10.522;2023-04-24T01:56:22;99570.47;;;13.83;100.00
56006;BME280;41888;44.696;10.522;2023-04-24T01:58:50;99572.63;;;13.86;100.00
56006;BME280;41888;44.696;10.522;2023-04-24T02:01:19;99568.13;;;13.70;100.00
56006;BME280;41888;44.696;10.522;2023-04-24T02:03:46;99560.31;;;13.47;100.00
56006;BME280;41888;44.696;10.522;2023-04-24T02:06:12;99558.53;;;13.36;100.00
56006;BME280;41888;44.696;10.522;2023-04-24T02:08:38;99550.25;;;13.54;100.00
56006;BME280;41888;44.696;10.522;2023-04-24T02:11:04;99556.97;;;13.57;100.00
56006;BME280;41888;44.696;10.522;2023-04-24T02:13:31;99570.38;;;13.78;100.00
56006;BME280;41888;44.696;10.522;2023-04-24T02:15:58;99568.44;;;13.90;100.00
56006;BME280;41888;44.696;10.522;2023-04-24T02:18:25;99558.28;;;13.92;100.00
56006;BME280;41888;44.696;10.522;2023-04-24T02:20:51;99554.09;;;13.80;100.00
56006;BME280;41888;44.696;10.522;2023-04-24T02:23:17;99565.47;;;13.92;100.00
56006;BME280;41888;44.696;10.522;2023-04-24T02:25:43;99573.16;;;14.05;100.00
56006;BME280;41888;44.696;10.522;2023-04-24T02:28:10;99573.13;;;13.83;100.00
56006;BME280;41888;44.696;10.522;2023-04-24T02:30:36;99573.13;;;13.83;100.00
56006;BME280;41888;44.696;10.522;2023-04-24T02:33:02;99548.38;;;13.93;100.00
56006;BME280;41888;44.696;10.522;2023-04-24T02:35:29;99549.78;;;13.95;100.00
56006;BME280;41888;44.696;10.522;2023-04-24T02:37:55;99553.22;;;13.74;100.00
56006;BME280;41888;44.696;10.522;2023-04-24T02:40:21;99554.38;;;13.62;100.00
56006;BME280;41888;44.696;10.522;2023-04-24T02:42:47;99561.50;;;13.56;100.00
56006;BME280;41888;44.696;10.522;2023-04-24T02:45:14;99568.47;;;13.24;100.00
56006;BME280;41888;44.696;10.522;2023-04-24T02:47:40;99558.22;;;13.16;100.00
56006;BME280;41888;44.696;10.522;2023-04-24T02:50:07;99550.66;;;13.46;100.00
56006;BME280;41888;44.696;10.522;2023-04-24T02:52:33;99565.38;;;13.65;100.00
56006;BME280;41888;44.696;10.522;2023-04-24T02:54:59;99556.16;;;13.23;100.00
56006;BME280;41888;44.696;10.522;2023-04-24T02:57:25;99582.34;;;12.92;100.00
56006;BME280;41888;44.696;10.522;2023-04-24T02:59:51;99580.28;;;13.11;100.00
56006;BME280;41888;44.696;10.522;2023-04-24T03:02:17;99562.59;;;13.22;100.00
56006;BME280;41888;44.696;10.522;2023-04-24T03:04:44;99552.75;;;13.10;100.00
56006;BME280;41888;44.696;10.522;2023-04-24T03:07:10;99539.19;;;13.29;100.00
56006;BME280;41888;44.696;10.522;2023-04-24T03:09:36;99525.91;;;13.00;100.00
56006;BME280;41888;44.696;10.522;2023-04-24T03:15:24;99541.28;;;13.10;100.00
56006;BME280;41888;44.696;10.522;2023-04-24T03:17:51;99540.00;;;13.13;100.00
56006;BME280;41888;44.696;10.522;2023-04-24T03:20:17;99525.72;;;13.07;100.00
56006;BME280;41888;44.696;10.522;2023-04-24T03:22:43;99522.50;;;13.05;100.00
56006;BME280;41888;44.696;10.522;2023-04-24T03:25:09;99528.50;;;13.29;100.00
56006;BME280;41888;44.696;10.522;2023-04-24T03:27:36;99529.63;;;13.33;100.00
56006;BME280;41888;44.696;10.522;2023-04-24T03:30:02;99527.84;;;13.38;100.00
56006;BME280;41888;44.696;10.522;2023-04-24T03:32:28;99533.50;;;13.42;100.00
56006;BME280;41888;44.696;10.522;2023-04-24T03:34:55;99549.78;;;13.57;100.00
56006;BME280;41888;44.696;10.522;2023-04-24T03:37:21;99548.72;;;13.41;100.00
56006;BME280;41888;44.696;10.522;2023-04-24T03:39:47;99557.41;;;13.15;100.00
56006;BME280;41888;44.696;10.522;2023-04-24T03:42:13;99554.00;;;13.20;100.00
56006;BME280;41888;44.696;10.522;2023-04-24T03:44:39;99557.41;;;13.32;100.00
56006;BME280;41888;44.696;10.522;2023-04-24T03:47:05;99565.97;;;13.17;100.00
56006;BME280;41888;44.696;10.522;2023-04-24T03:49:31;99551.72;;;13.11;100.00
56006;BME280;41888;44.696;10.522;2023-04-24T03:51:58;99565.78;;;13.07;100.00
56006;BME280;41888;44.696;10.522;2023-04-24T03:54:24;99558.03;;;13.05;100.00
56006;BME280;41888;44.696;10.522;2023-04-24T03:56:50;99561.59;;;13.11;100.00
56006;BME280;41888;44.696;10.522;2023-04-24T03:59:16;99570.91;;;13.25;100.00
56006;BME280;41888;44.696;10.522;2023-04-24T04:01:43;99571.47;;;13.27;100.00
56006;BME280;41888;44.696;10.522;2023-04-24T04:04:09;99584.75;;;13.22;100.00
56006;BME280;41888;44.696;10.522;2023-04-24T04:06:35;99587.09;;;13.19;100.00
56006;BME280;41888;44.696;10.522;2023-04-24T04:09:02;99592.75;;;13.22;100.00
56006;BME280;41888;44.696;10.522;2023-04-24T04:11:29;99588.41;;;12.88;100.00
56006;BME280;41888;44.696;10.522;2023-04-24T04:13:56;99586.56;;;12.88;100.00
56006;BME280;41888;44.696;10.522;2023-04-24T04:16:22;99591.06;;;12.88;100.00
56006;BME280;41888;44.696;10.522;2023-04-24T04:18:49;99596.66;;;12.86;100.00
56006;BME280;41888;44.696;10.522;2023-04-24T04:21:15;99595.94;;;12.91;100.00
56006;BME280;41888;44.696;10.522;2023-04-24T04:23:41;99592.25;;;13.08;100.00
56006;BME280;41888;44.696;10.522;2023-04-24T04:26:07;99601.94;;;12.98;100.00
56006;BME280;41888;44.696;10.522;2023-04-24T04:28:34;99581.75;;;12.90;100.00
56006;BME280;41888;44.696;10.522;2023-04-24T04:31:00;99568.41;;;12.74;100.00
56006;BME280;41888;44.696;10.522;2023-04-24T04:33:27;99567.97;;;12.65;100.00
56006;BME280;41888;44.696;10.522;2023-04-24T04:35:53;99583.66;;;12.90;100.00
56006;BME280;41888;44.696;10.522;2023-04-24T04:38:19;99580.50;;;12.93;100.00
56006;BME280;41888;44.696;10.522;2023-04-24T04:40:46;99579.09;;;12.90;100.00
56006;BME280;41888;44.696;10.522;2023-04-24T04:43:13;99580.16;;;12.89;100.00
56006;BME280;41888;44.696;10.522;2023-04-24T04:45:41;99588.38;;;12.71;100.00
56006;BME280;41888;44.696;10.522;2023-04-24T04:48:09;99592.16;;;12.75;100.00
56006;BME280;41888;44.696;10.522;2023-04-24T04:50:38;99586.28;;;12.73;100.00
56006;BME280;41888;44.696;10.522;2023-04-24T04:53:04;99590.00;;;12.72;100.00
56006;BME280;41888;44.696;10.522;2023-04-24T04:55:31;99591.94;;;12.48;100.00
56006;BME280;41888;44.696;10.522;2023-04-24T04:57:57;99584.81;;;12.54;100.00
56006;BME280;41888;44.696;10.522;2023-04-24T05:00:24;99584.00;;;12.53;100.00
56006;BME280;41888;44.696;10.522;2023-04-24T05:02:51;99586.75;;;12.70;100.00
56006;BME280;41888;44.696;10.522;2023-04-24T05:05:17;99591.63;;;12.73;100.00
56006;BME280;41888;44.696;10.522;2023-04-24T05:07:44;99591.53;;;12.68;100.00
56006;BME280;41888;44.696;10.522;2023-04-24T05:10:10;99596.47;;;12.76;100.00
56006;BME280;41888;44.696;10.522;2023-04-24T05:12:37;99592.16;;;12.75;100.00
56006;BME280;41888;44.696;10.522;2023-04-24T05:15:03;99586.84;;;12.75;100.00
56006;BME280;41888;44.696;10.522;2023-04-24T05:17:30;99578.50;;;12.72;100.00
56006;BME280;41888;44.696;10.522;2023-04-24T05:19:56;99565.59;;;12.52;100.00
56006;BME280;41888;44.696;10.522;2023-04-24T05:22:22;99552.56;;;12.27;100.00
56006;BME280;41888;44.696;10.522;2023-04-24T05:24:49;99556.59;;;12.41;100.00
56006;BME280;41888;44.696;10.522;2023-04-24T05:27:15;99546.63;;;12.37;100.00
56006;BME280;41888;44.696;10.522;2023-04-24T05:29:42;99542.88;;;12.21;100.00
56006;BME280;41888;44.696;10.522;2023-04-24T05:32:08;99532.09;;;12.16;100.00
56006;BME280;41888;44.696;10.522;2023-04-24T05:34:34;99527.56;;;12.16;100.00
56006;BME280;41888;44.696;10.522;2023-04-24T05:37:00;99534.06;;;12.20;100.00
56006;BME280;41888;44.696;10.522;2023-04-24T05:39:27;99528.28;;;12.40;100.00
56006;BME280;41888;44.696;10.522;2023-04-24T05:41:53;99521.84;;;12.24;100.00
56006;BME280;41888;44.696;10.522;2023-04-24T05:44:19;99528.28;;;12.40;100.00
56006;BME280;41888;44.696;10.522;2023-04-24T05:46:45;99541.19;;;12.60;100.00
56006;BME280;41888;44.696;10.522;2023-04-24T05:49:11;99545.91;;;12.69;100.00
56006;BME280;41888;44.696;10.522;2023-04-24T05:51:38;99559.69;;;12.78;100.00
56006;BME280;41888;44.696;10.522;2023-04-24T05:54:05;99569.94;;;12.86;100.00
56006;BME280;41888;44.696;10.522;2023-04-24T05:56:31;99568.75;;;12.94;100.00
56006;BME280;41888;44.696;10.522;2023-04-24T05:58:57;99569.66;;;12.99;100.00
56006;BME280;41888;44.696;10.522;2023-04-24T06:01:23;99571.50;;;12.82;100.00
56006;BME280;41888;44.696;10.522;2023-04-24T06:03:50;99570.72;;;12.70;100.00
56006;BME280;41888;44.696;10.522;2023-04-24T06:06:17;99568.75;;;12.94;100.00
56006;BME280;41888;44.696;10.522;2023-04-24T06:08:43;99573.97;;;13.00;100.00
56006;BME280;41888;44.696;10.522;2023-04-24T06:11:10;99573.28;;;13.22;100.00
56006;BME280;41888;44.696;10.522;2023-04-24T06:13:36;99581.69;;;14.67;100.00
56006;BME280;41888;44.696;10.522;2023-04-24T06:16:02;99586.16;;;16.41;100.00
56006;BME280;41888;44.696;10.522;2023-04-24T06:18:28;99592.97;;;18.11;100.00
56006;BME280;41888;44.696;10.522;2023-04-24T06:20:55;99587.88;;;18.09;100.00
56006;BME280;41888;44.696;10.522;2023-04-24T06:23:21;99593.84;;;16.90;100.00
56006;BME280;41888;44.696;10.522;2023-04-24T06:25:47;99586.56;;;16.65;100.00
56006;BME280;41888;44.696;10.522;2023-04-24T06:28:13;99588.06;;;16.46;100.00
56006;BME280;41888;44.696;10.522;2023-04-24T06:30:39;99587.75;;;16.37;100.00
56006;BME280;41888;44.696;10.522;2023-04-24T06:33:06;99581.19;;;16.13;100.00
56006;BME280;41888;44.696;10.522;2023-04-24T06:35:33;99580.97;;;17.63;100.00
56006;BME280;41888;44.696;10.522;2023-04-24T06:37:59;99583.50;;;18.34;100.00
56006;BME280;41888;44.696;10.522;2023-04-24T06:40:25;99583.59;;;18.68;100.00
56006;BME280;41888;44.696;10.522;2023-04-24T06:42:51;99584.69;;;17.97;100.00
56006;BME280;41888;44.696;10.522;2023-04-24T06:45:18;99589.69;;;18.24;100.00
56006;BME280;41888;44.696;10.522;2023-04-24T06:47:44;99595.63;;;19.24;100.00
56006;BME280;41888;44.696;10.522;2023-04-24T06:50:10;99609.34;;;19.67;100.00
56006;BME280;41888;44.696;10.522;2023-04-24T06:52:37;99605.34;;;19.20;100.00
56006;BME280;41888;44.696;10.522;2023-04-24T06:55:04;99609.25;;;18.60;100.00
56006;BME280;41888;44.696;10.522;2023-04-24T06:57:31;99604.97;;;18.54;100.00
56006;BME280;41888;44.696;10.522;2023-04-24T06:59:58;99598.56;;;18.30;100.00
56006;BME280;41888;44.696;10.522;2023-04-24T07:02:24;99596.72;;;18.15;100.00
56006;BME280;41888;44.696;10.522;2023-04-24T07:04:50;99601.94;;;17.66;100.00
56006;BME280;41888;44.696;10.522;2023-04-24T07:07:17;99609.19;;;17.25;100.00
56006;BME280;41888;44.696;10.522;2023-04-24T07:09:43;99614.56;;;17.10;100.00
56006;BME280;41888;44.696;10.522;2023-04-24T07:12:10;99620.16;;;16.83;100.00
56006;BME280;41888;44.696;10.522;2023-04-24T07:14:37;99621.06;;;17.44;100.00
56006;BME280;41888;44.696;10.522;2023-04-24T07:17:04;99616.44;;;18.00;100.00
56006;BME280;41888;44.696;10.522;2023-04-24T07:19:30;99613.97;;;18.09;100.00
56006;BME280;41888;44.696;10.522;2023-04-24T07:21:56;99620.34;;;18.43;100.00
56006;BME280;41888;44.696;10.522;2023-04-24T07:24:24;99622.97;;;18.64;100.00
56006;BME280;41888;44.696;10.522;2023-04-24T07:26:52;99618.88;;;18.76;100.00
56006;BME280;41888;44.696;10.522;2023-04-24T07:29:18;99616.94;;;18.87;100.00
56006;BME280;41888;44.696;10.522;2023-04-24T07:31:45;99618.78;;;18.91;100.00
56006;BME280;41888;44.696;10.522;2023-04-24T07:34:12;99625.16;;;19.06;100.00
56006;BME280;41888;44.696;10.522;2023-04-24T07:36:38;99625.50;;;19.33;100.00
56006;BME280;41888;44.696;10.522;2023-04-24T07:39:05;99629.91;;;19.24;100.00
56006;BME280;41888;44.696;10.522;2023-04-24T07:41:31;99624.72;;;19.27;100.00
56006;BME280;41888;44.696;10.522;2023-04-24T07:43:58;99631.56;;;19.54;100.00
56006;BME280;41888;44.696;10.522;2023-04-24T07:46:24;99633.53;;;19.77;100.00
56006;BME280;41888;44.696;10.522;2023-04-24T07:48:51;99636.88;;;19.64;100.00
56006;BME280;41888;44.696;10.522;2023-04-24T07:51:17;99637.78;;;19.83;100.00
56006;BME280;41888;44.696;10.522;2023-04-24T07:53:44;99623.16;;;19.60;100.00
56006;BME280;41888;44.696;10.522;2023-04-24T07:56:10;99623.72;;;19.57;100.00
56006;BME280;41888;44.696;10.522;2023-04-24T07:58:36;99628.94;;;19.44;100.00
56006;BME280;41888;44.696;10.522;2023-04-24T08:01:03;99631.94;;;19.37;100.00
56006;BME280;41888;44.696;10.522;2023-04-24T08:03:29;99634.19;;;19.25;100.00
56006;BME280;41888;44.696;10.522;2023-04-24T08:05:55;99628.16;;;19.38;100.00
56006;BME280;41888;44.696;10.522;2023-04-24T08:08:23;99635.25;;;19.63;100.00
56006;BME280;41888;44.696;10.522;2023-04-24T08:10:50;99641.72;;;19.67;100.00
56006;BME280;41888;44.696;10.522;2023-04-24T08:13:16;99640.38;;;19.64;100.00
56006;BME280;41888;44.696;10.522;2023-04-24T08:15:42;99641.97;;;19.94;100.00
56006;BME280;41888;44.696;10.522;2023-04-24T08:18:08;99647.09;;;19.96;100.00
56006;BME280;41888;44.696;10.522;2023-04-24T08:20:37;99642.50;;;19.96;100.00
56006;BME280;41888;44.696;10.522;2023-04-24T08:23:03;99638.91;;;20.06;100.00
56006;BME280;41888;44.696;10.522;2023-04-24T08:25:30;99640.41;;;19.93;100.00
56006;BME280;41888;44.696;10.522;2023-04-24T08:27:56;99643.31;;;19.68;100.00
56006;BME280;41888;44.696;10.522;2023-04-24T08:30:22;99639.72;;;19.77;100.00
56006;BME280;41888;44.696;10.522;2023-04-24T08:32:49;99635.78;;;19.94;100.00
56006;BME280;41888;44.696;10.522;2023-04-24T08:35:15;99637.97;;;19.92;100.00
56006;BME280;41888;44.696;10.522;2023-04-24T08:37:41;99645.28;;;20.15;100.00
56006;BME280;41888;44.696;10.522;2023-04-24T08:40:13;99650.13;;;20.18;100.00
56006;BME280;41888;44.696;10.522;2023-04-24T08:42:43;99646.88;;;19.92;100.00
56006;BME280;41888;44.696;10.522;2023-04-24T08:45:11;99645.81;;;20.17;100.00
56006;BME280;41888;44.696;10.522;2023-04-24T08:47:39;99650.50;;;20.35;100.00
56006;BME280;41888;44.696;10.522;2023-04-24T08:50:06;99644.34;;;20.01;100.00
56006;BME280;41888;44.696;10.522;2023-04-24T08:52:34;99641.13;;;19.99;100.00
56006;BME280;41888;44.696;10.522;2023-04-24T08:55:00;99638.47;;;19.94;100.00
56006;BME280;41888;44.696;10.522;2023-04-24T08:57:28;99643.47;;;19.48;100.00
56006;BME280;41888;44.696;10.522;2023-04-24T08:59:55;99649.59;;;19.58;100.00
56006;BME280;41888;44.696;10.522;2023-04-24T09:02:22;99654.78;;;19.83;100.00
56006;BME280;41888;44.696;10.522;2023-04-24T09:04:50;99656.13;;;19.86;100.00
56006;BME280;41888;44.696;10.522;2023-04-24T09:07:17;99661.09;;;20.03;100.00
56006;BME280;41888;44.696;10.522;2023-04-24T09:09:44;99664.00;;;20.06;100.00
56006;BME280;41888;44.696;10.522;2023-04-24T09:12:11;99660.44;;;20.11;100.00
56006;BME280;41888;44.696;10.522;2023-04-24T09:14:37;99661.25;;;20.40;100.00
56006;BME280;41888;44.696;10.522;2023-04-24T09:17:08;99670.22;;;20.31;100.00
56006;BME280;41888;44.696;10.522;2023-04-24T09:19:34;99667.38;;;20.70;97.80
56006;BME280;41888;44.696;10.522;2023-04-24T09:22:05;99667.84;;;20.53;98.93
56006;BME280;41888;44.696;10.522;2023-04-24T09:24:33;99663.97;;;20.40;100.00
56006;BME280;41888;44.696;10.522;2023-04-24T09:26:59;99656.81;;;20.49;100.00
56006;BME280;41888;44.696;10.522;2023-04-24T09:29:29;99659.81;;;20.48;100.00
56006;BME280;41888;44.696;10.522;2023-04-24T09:31:57;99655.09;;;20.58;98.47
56006;BME280;41888;44.696;10.522;2023-04-24T09:34:27;99651.22;;;20.64;97.98
56006;BME280;41888;44.696;10.522;2023-04-24T09:36:54;99653.25;;;21.15;96.19
56006;BME280;41888;44.696;10.522;2023-04-24T09:39:21;99646.41;;;21.23;93.06
56006;BME280;41888;44.696;10.522;2023-04-24T09:41:53;99650.03;;;21.13;95.29
56006;BME280;41888;44.696;10.522;2023-04-24T09:44:23;99654.84;;;21.86;90.51
56006;BME280;41888;44.696;10.522;2023-04-24T09:46:56;99653.56;;;21.65;92.24
56006;BME280;41888;44.696;10.522;2023-04-24T09:49:26;99656.81;;;21.67;91.53
56006;BME280;41888;44.696;10.522;2023-04-24T09:52:02;99664.72;;;21.44;90.86
56006;BME280;41888;44.696;10.522;2023-04-24T09:54:29;99664.72;;;21.26;94.70
56006;BME280;41888;44.696;10.522;2023-04-24T09:56:55;99667.25;;;21.41;95.69
56006;BME280;41888;44.696;10.522;2023-04-24T09:59:22;99661.91;;;21.17;95.80
56006;BME280;41888;44.696;10.522;2023-04-24T10:01:49;99661.06;;;21.54;93.23
56006;BME280;41888;44.696;10.522;2023-04-24T10:04:27;99663.13;;;21.43;93.38
56006;BME280;41888;44.696;10.522;2023-04-24T10:06:56;99663.22;;;21.20;93.50
56006;BME280;41888;44.696;10.522;2023-04-24T10:09:26;99661.22;;;21.44;93.79
56006;BME280;41888;44.696;10.522;2023-04-24T10:11:55;99658.06;;;21.56;92.52
56006;BME280;41888;44.696;10.522;2023-04-24T10:14:23;99660.97;;;21.91;91.94
56006;BME280;41888;44.696;10.522;2023-04-24T10:16:52;99655.50;;;22.10;89.28
56006;BME280;41888;44.696;10.522;2023-04-24T10:19:19;99659.00;;;21.65;90.91
56006;BME280;41888;44.696;10.522;2023-04-24T10:21:46;99651.38;;;21.34;91.85
56006;BME280;41888;44.696;10.522;2023-04-24T10:24:19;99653.81;;;21.49;83.69
56006;BME280;41888;44.696;10.522;2023-04-24T10:26:48;99660.84;;;21.83;85.57
56006;BME280;41888;44.696;10.522;2023-04-24T10:29:16;99657.19;;;21.60;88.40
56006;BME280;41888;44.696;10.522;2023-04-24T10:31:43;99658.72;;;21.80;90.89
56006;BME280;41888;44.696;10.522;2023-04-24T10:34:13;99655.38;;;21.37;90.53
56006;BME280;41888;44.696;10.522;2023-04-24T10:36:43;99651.03;;;21.55;91.34
56006;BME280;41888;44.696;10.522;2023-04-24T10:39:13;99652.16;;;22.00;87.67
56006;BME280;41888;44.696;10.522;2023-04-24T10:41:41;99652.78;;;22.10;81.98
56006;BME280;41888;44.696;10.522;2023-04-24T10:44:12;99653.63;;;22.24;80.02
56006;BME280;41888;44.696;10.522;2023-04-24T10:46:42;99646.59;;;22.23;80.41
56006;BME280;41888;44.696;10.522;2023-04-24T10:49:09;99656.44;;;21.87;80.24
56006;BME280;41888;44.696;10.522;2023-04-24T10:51:45;99654.03;;;21.85;82.05
56006;BME280;41888;44.696;10.522;2023-04-24T10:54:26;99650.59;;;21.66;83.23
56006;BME280;41888;44.696;10.522;2023-04-24T10:56:53;99644.78;;;21.73;87.79
56006;BME280;41888;44.696;10.522;2023-04-24T10:59:39;99647.31;;;21.83;85.27
56006;BME280;41888;44.696;10.522;2023-04-24T11:02:07;99647.97;;;22.07;81.61
56006;BME280;41888;44.696;10.522;2023-04-24T11:04:34;99643.09;;;22.23;82.50
56006;BME280;41888;44.696;10.522;2023-04-24T11:07:04;99651.00;;;22.19;83.42
56006;BME280;41888;44.696;10.522;2023-04-24T11:09:33;99643.97;;;22.59;81.15
56006;BME280;41888;44.696;10.522;2023-04-24T11:12:08;99636.47;;;22.29;80.64
56006;BME280;41888;44.696;10.522;2023-04-24T11:17:35;99633.66;;;21.74;78.57
56006;BME280;41888;44.696;10.522;2023-04-24T11:20:17;99627.22;;;22.16;79.54
56006;BME280;41888;44.696;10.522;2023-04-24T11:22:43;99638.94;;;22.12;75.55
56006;BME280;41888;44.696;10.522;2023-04-24T11:25:10;99632.53;;;22.21;75.66
56006;BME280;41888;44.696;10.522;2023-04-24T11:27:43;99632.16;;;22.42;73.40
56006;BME280;41888;44.696;10.522;2023-04-24T11:30:10;99633.75;;;22.29;76.59
56006;BME280;41888;44.696;10.522;2023-04-24T11:32:41;99622.31;;;22.32;74.97
56006;BME280;41888;44.696;10.522;2023-04-24T11:37:46;99621.81;;;22.57;75.16
56006;BME280;41888;44.696;10.522;2023-04-24T11:40:16;99617.38;;;22.61;75.92
56006;BME280;41888;44.696;10.522;2023-04-24T11:42:46;99620.69;;;22.45;77.67
56006;BME280;41888;44.696;10.522;2023-04-24T11:45:15;99623.22;;;22.27;78.45
56006;BME280;41888;44.696;10.522;2023-04-24T11:47:42;99619.50;;;22.51;76.16
56006;BME280;41888;44.696;10.522;2023-04-24T11:50:13;99616.16;;;22.54;75.84
56006;BME280;41888;44.696;10.522;2023-04-24T11:52:48;99620.47;;;22.55;74.65
56006;BME280;41888;44.696;10.522;2023-04-24T11:57:43;99627.00;;;22.67;73.22
56006;BME280;41888;44.696;10.522;2023-04-24T12:00:16;99627.47;;;22.97;72.40
56006;BME280;41888;44.696;10.522;2023-04-24T12:02:43;99618.94;;;23.26;72.09
56006;BME280;41888;44.696;10.522;2023-04-24T12:05:18;99617.06;;;23.12;71.84
56006;BME280;41888;44.696;10.522;2023-04-24T12:07:44;99624.22;;;23.08;72.58
56006;BME280;41888;44.696;10.522;2023-04-24T12:10:11;99622.81;;;23.33;71.68
56006;BME280;41888;44.696;10.522;2023-04-24T12:12:37;99631.28;;;23.32;70.87
56006;BME280;41888;44.696;10.522;2023-04-24T12:15:08;99624.06;;;23.49;67.80
56006;BME280;41888;44.696;10.522;2023-04-24T12:17:35;99618.47;;;23.32;68.82
56006;BME280;41888;44.696;10.522;2023-04-24T12:20:07;99619.28;;;23.46;69.95
56006;BME280;41888;44.696;10.522;2023-04-24T12:22:53;99624.78;;;23.64;68.49
56006;BME280;41888;44.696;10.522;2023-04-24T12:25:22;99614.03;;;23.50;67.22
56006;BME280;41888;44.696;10.522;2023-04-24T12:28:14;99614.88;;;23.59;68.12
56006;BME280;41888;44.696;10.522;2023-04-24T12:33:07;99625.72;;;23.37;66.88
56006;BME280;41888;44.696;10.522;2023-04-24T12:35:33;99622.13;;;23.28;65.67
56006;BME280;41888;44.696;10.522;2023-04-24T12:38:08;99619.84;;;22.85;67.45
56006;BME280;41888;44.696;10.522;2023-04-24T12:40:35;99614.72;;;22.97;68.87
56006;BME280;41888;44.696;10.522;2023-04-24T12:43:02;99609.75;;;23.35;67.64
56006;BME280;41888;44.696;10.522;2023-04-24T12:45:28;99607.03;;;23.35;67.32
56006;BME280;41888;44.696;10.522;2023-04-24T12:47:54;99611.81;;;23.52;64.27
56006;BME280;41888;44.696;10.522;2023-04-24T12:50:20;99616.22;;;23.70;64.32
56006;BME280;41888;44.696;10.522;2023-04-24T12:52:47;99621.19;;;23.68;64.37
56006;BME280;41888;44.696;10.522;2023-04-24T12:55:13;99602.88;;;23.82;64.98
56006;BME280;41888;44.696;10.522;2023-04-24T12:57:40;99605.41;;;23.79;64.08